sensor_id;sensor_type;location;lat;lon;timestamp;pressure;altitude;pressure_sealevel;temperature;humidity
24486;BME280;13449;49.374;8.584;2023-05-23T00:01:42;100317.75;;;17.69;79.83
24486;BME280;13449;49.374;8.584;2023-05-23T00:04:11;100307.53;;;17.64;80.10
24486;BME280;13449;49.374;8.584;2023-05-23T00:06:42;100313.69;;;17.64;79.68
24486;BME280;13449;49.374;8.584;2023-05-23T00:09:15;100312.88;;;17.64;80.13
24486;BME280;13449;49.374;8.584;2023-05-23T00:11:42;100306.88;;;17.62;79.74
24486;BME280;13449;49.374;8.584;2023-05-23T00:14:12;100320.03;;;17.63;79.88
24486;BME280;13449;49.374;8.584;2023-05-23T00:16:43;100315.69;;;17.62;79.55
24486;BME280;13449;49.374;8.584;2023-05-23T00:19:11;100318.03;;;17.57;80.01
24486;BME280;13449;49.374;8.584;2023-05-23T00:21:41;100315.06;;;17.52;79.97
24486;BME280;13449;49.374;8.584;2023-05-23T00:24:08;100325.72;;;17.52;79.88
24486;BME280;13449;49.374;8.584;2023-05-23T00:26:35;100320.69;;;17.49;79.93
24486;BME280;13449;49.374;8.584;2023-05-23T00:29:04;100322.69;;;17.47;80.00
24486;BME280;13449;49.374;8.584;2023-05-23T00:31:30;100324.03;;;17.43;80.81
24486;BME280;13449;49.374;8.584;2023-05-23T00:34:00;100317.19;;;17.41;80.55
24486;BME280;13449;49.374;8.584;2023-05-23T00:36:27;100320.03;;;17.39;80.32
24486;BME280;13449;49.374;8.584;2023-05-23T00:38:53;100322.34;;;17.34;80.39
24486;BME280;13449;49.374;8.584;2023-05-23T00:41:20;100320.66;;;17.33;80.49
24486;BME280;13449;49.374;8.584;2023-05-23T00:43:49;100316.69;;;17.29;80.54
24486;BME280;13449;49.374;8.584;2023-05-23T00:46:16;100328.66;;;17.25;80.64
24486;BME280;13449;49.374;8.584;2023-05-23T00:48:42;100325.97;;;17.17;81.20
24486;BME280;13449;49.374;8.584;2023-05-23T00:51:09;100320.97;;;17.14;81.30
24486;BME280;13449;49.374;8.584;2023-05-23T00:53:35;100320.66;;;17.09;81.00
24486;BME280;13449;49.374;8.584;2023-05-23T00:56:02;100327.59;;;17.01;81.65
24486;BME280;13449;49.374;8.584;2023-05-23T00:58:29;100320.59;;;17.00;81.40
24486;BME280;13449;49.374;8.584;2023-05-23T01:00:56;100320.28;;;17.03;81.05
24486;BME280;13449;49.374;8.584;2023-05-23T01:03:25;100328.44;;;17.02;81.34
24486;BME280;13449;49.374;8.584;2023-05-23T01:05:54;100325.09;;;17.00;81.52
24486;BME280;13449;49.374;8.584;2023-05-23T01:08:21;100329.09;;;16.96;81.60
24486;BME280;13449;49.374;8.584;2023-05-23T01:10:51;100326.59;;;16.94;81.39
24486;BME280;13449;49.374;8.584;2023-05-23T01:15:56;100326.56;;;16.86;81.68
24486;BME280;13449;49.374;8.584;2023-05-23T01:18:33;100323.88;;;16.86;81.27
24486;BME280;13449;49.374;8.584;2023-05-23T01:21:12;100326.72;;;16.85;81.40
24486;BME280;13449;49.374;8.584;2023-05-23T01:24:07;100319.72;;;16.84;81.43
24486;BME280;13449;49.374;8.584;2023-05-23T01:29:34;100333.19;;;16.82;81.83
24486;BME280;13449;49.374;8.584;2023-05-23T01:32:06;100335.19;;;16.80;81.60
24486;BME280;13449;49.374;8.584;2023-05-23T01:34:34;100334.84;;;16.75;81.66
24486;BME280;13449;49.374;8.584;2023-05-23T01:37:07;100350.25;;;16.71;82.20
24486;BME280;13449;49.374;8.584;2023-05-23T01:39:34;100341.78;;;16.68;81.77
24486;BME280;13449;49.374;8.584;2023-05-23T01:42:01;100349.06;;;16.66;81.78
24486;BME280;13449;49.374;8.584;2023-05-23T01:44:31;100350.69;;;16.59;82.51
24486;BME280;13449;49.374;8.584;2023-05-23T01:47:01;100354.81;;;16.53;82.21
24486;BME280;13449;49.374;8.584;2023-05-23T01:49:29;100348.97;;;16.50;82.60
24486;BME280;13449;49.374;8.584;2023-05-23T01:52:00;100345.97;;;16.44;82.71
24486;BME280;13449;49.374;8.584;2023-05-23T01:54:28;100354.41;;;16.40;82.54
24486;BME280;13449;49.374;8.584;2023-05-23T01:56:56;100356.88;;;16.33;82.73
24486;BME280;13449;49.374;8.584;2023-05-23T01:59:23;100358.50;;;16.26;83.25
24486;BME280;13449;49.374;8.584;2023-05-23T02:01:50;100362.97;;;16.26;83.06
24486;BME280;13449;49.374;8.584;2023-05-23T02:04:17;100358.50;;;16.26;82.79
24486;BME280;13449;49.374;8.584;2023-05-23T02:06:43;100352.03;;;16.29;82.86
24486;BME280;13449;49.374;8.584;2023-05-23T02:09:10;100371.47;;;16.29;83.11
24486;BME280;13449;49.374;8.584;2023-05-23T02:11:36;100365.47;;;16.27;83.35
24486;BME280;13449;49.374;8.584;2023-05-23T02:14:03;100363.09;;;16.24;82.76
24486;BME280;13449;49.374;8.584;2023-05-23T02:16:29;100366.91;;;16.22;83.32
24486;BME280;13449;49.374;8.584;2023-05-23T02:18:56;100366.72;;;16.15;83.54
24486;BME280;13449;49.374;8.584;2023-05-23T02:21:23;100366.19;;;16.11;83.59
24486;BME280;13449;49.374;8.584;2023-05-23T02:23:49;100365.66;;;16.08;83.52
24486;BME280;13449;49.374;8.584;2023-05-23T02:26:18;100365.97;;;16.05;83.25
24486;BME280;13449;49.374;8.584;2023-05-23T02:28:45;100365.97;;;16.05;83.10
24486;BME280;13449;49.374;8.584;2023-05-23T02:31:11;100367.94;;;16.03;83.50
24486;BME280;13449;49.374;8.584;2023-05-23T02:33:38;100367.94;;;16.03;83.66
24486;BME280;13449;49.374;8.584;2023-05-23T02:36:07;100362.97;;;16.00;83.71
24486;BME280;13449;49.374;8.584;2023-05-23T02:38:33;100370.25;;;15.98;83.78
24486;BME280;13449;49.374;8.584;2023-05-23T02:41:00;100372.50;;;15.93;83.71
24486;BME280;13449;49.374;8.584;2023-05-23T02:43:26;100372.81;;;15.90;83.31
24486;BME280;13449;49.374;8.584;2023-05-23T02:45:55;100380.78;;;15.90;84.20
24486;BME280;13449;49.374;8.584;2023-05-23T02:48:22;100372.31;;;15.86;83.96
24486;BME280;13449;49.374;8.584;2023-05-23T02:50:49;100374.28;;;15.84;83.96
24486;BME280;13449;49.374;8.584;2023-05-23T02:53:17;100378.75;;;15.83;83.60
24486;BME280;13449;49.374;8.584;2023-05-23T02:55:44;100383.44;;;15.90;83.97
24486;BME280;13449;49.374;8.584;2023-05-23T02:58:10;100377.81;;;15.93;84.05
24486;BME280;13449;49.374;8.584;2023-05-23T03:00:37;100389.16;;;15.95;84.02
24486;BME280;13449;49.374;8.584;2023-05-23T03:03:04;100384.22;;;16.00;83.51
24486;BME280;13449;49.374;8.584;2023-05-23T03:05:31;100382.53;;;15.99;84.22
24486;BME280;13449;49.374;8.584;2023-05-23T03:07:57;100377.06;;;16.00;83.70
24486;BME280;13449;49.374;8.584;2023-05-23T03:10:25;100379.56;;;16.02;84.15
24486;BME280;13449;49.374;8.584;2023-05-23T03:12:52;100382.91;;;16.04;84.55
24486;BME280;13449;49.374;8.584;2023-05-23T03:15:18;100386.91;;;16.08;84.19
24486;BME280;13449;49.374;8.584;2023-05-23T03:17:47;100386.63;;;16.11;83.94
24486;BME280;13449;49.374;8.584;2023-05-23T03:20:17;100391.94;;;16.11;83.73
24486;BME280;13449;49.374;8.584;2023-05-23T03:22:43;100389.66;;;16.16;83.55
24486;BME280;13449;49.374;8.584;2023-05-23T03:25:11;100385.53;;;16.22;83.73
24486;BME280;13449;49.374;8.584;2023-05-23T03:27:37;100391.75;;;16.30;83.54
24486;BME280;13449;49.374;8.584;2023-05-23T03:30:05;100392.41;;;16.32;83.35
24486;BME280;13449;49.374;8.584;2023-05-23T03:32:31;100389.13;;;16.38;82.99
24486;BME280;13449;49.374;8.584;2023-05-23T03:34:58;100389.66;;;16.42;83.19
24486;BME280;13449;49.374;8.584;2023-05-23T03:37:24;100391.84;;;16.46;82.98
24486;BME280;13449;49.374;8.584;2023-05-23T03:39:51;100394.84;;;16.52;82.11
24486;BME280;13449;49.374;8.584;2023-05-23T03:42:20;100398.41;;;16.60;81.87
24486;BME280;13449;49.374;8.584;2023-05-23T03:44:47;100400.91;;;16.62;82.36
24486;BME280;13449;49.374;8.584;2023-05-23T03:47:13;100398.63;;;16.67;81.51
24486;BME280;13449;49.374;8.584;2023-05-23T03:49:40;100399.13;;;16.70;81.26
24486;BME280;13449;49.374;8.584;2023-05-23T03:52:10;100402.34;;;16.74;80.73
24486;BME280;13449;49.374;8.584;2023-05-23T03:54:37;100400.34;;;16.76;80.64
24486;BME280;13449;49.374;8.584;2023-05-23T03:57:06;100395.53;;;16.80;80.29
24486;BME280;13449;49.374;8.584;2023-05-23T03:59:33;100400.53;;;16.83;79.65
24486;BME280;13449;49.374;8.584;2023-05-23T04:02:00;100407.69;;;16.82;79.61
24486;BME280;13449;49.374;8.584;2023-05-23T04:04:28;100395.38;;;16.81;78.81
24486;BME280;13449;49.374;8.584;2023-05-23T04:06:55;100395.38;;;16.81;78.75
24486;BME280;13449;49.374;8.584;2023-05-23T04:09:24;100398.69;;;16.75;78.41
24486;BME280;13449;49.374;8.584;2023-05-23T04:11:51;100394.03;;;16.77;78.12
24486;BME280;13449;49.374;8.584;2023-05-23T04:14:18;100396.03;;;16.75;77.73
24486;BME280;13449;49.374;8.584;2023-05-23T04:16:47;100409.31;;;16.75;78.01
24486;BME280;13449;49.374;8.584;2023-05-23T04:19:14;100405.84;;;16.74;78.22
24486;BME280;13449;49.374;8.584;2023-05-23T04:21:41;100403.34;;;16.73;78.16
24486;BME280;13449;49.374;8.584;2023-05-23T04:24:08;100409.63;;;16.72;77.94
24486;BME280;13449;49.374;8.584;2023-05-23T04:26:34;100406.94;;;16.72;77.41
24486;BME280;13449;49.374;8.584;2023-05-23T04:29:03;100412.59;;;16.69;77.59
24486;BME280;13449;49.374;8.584;2023-05-23T04:31:31;100412.28;;;16.72;77.35
24486;BME280;13449;49.374;8.584;2023-05-23T04:33:59;100407.94;;;16.71;77.64
24486;BME280;13449;49.374;8.584;2023-05-23T04:36:29;100418.44;;;16.72;77.51
24486;BME280;13449;49.374;8.584;2023-05-23T04:38:55;100417.47;;;16.73;77.69
24486;BME280;13449;49.374;8.584;2023-05-23T04:41:24;100411.97;;;16.75;76.80
24486;BME280;13449;49.374;8.584;2023-05-23T04:43:51;100419.81;;;16.76;76.91
24486;BME280;13449;49.374;8.584;2023-05-23T04:46:22;100424.28;;;16.76;77.14
24486;BME280;13449;49.374;8.584;2023-05-23T04:48:52;100418.81;;;16.77;76.57
24486;BME280;13449;49.374;8.584;2023-05-23T04:51:22;100423.13;;;16.79;76.33
24486;BME280;13449;49.374;8.584;2023-05-23T04:53:51;100425.63;;;16.80;76.03
24486;BME280;13449;49.374;8.584;2023-05-23T04:56:18;100414.31;;;16.78;74.96
24486;BME280;13449;49.374;8.584;2023-05-23T04:58:53;100421.97;;;16.81;75.09
24486;BME280;13449;49.374;8.584;2023-05-23T05:01:20;100422.66;;;16.83;74.66
24486;BME280;13449;49.374;8.584;2023-05-23T05:03:50;100427.97;;;16.83;73.74
24486;BME280;13449;49.374;8.584;2023-05-23T05:06:17;100429.78;;;16.83;74.26
24486;BME280;13449;49.374;8.584;2023-05-23T05:08:46;100432.66;;;16.89;73.61
24486;BME280;13449;49.374;8.584;2023-05-23T05:11:13;100422.03;;;16.89;73.45
24486;BME280;13449;49.374;8.584;2023-05-23T05:13:42;100420.19;;;16.90;72.79
24486;BME280;13449;49.374;8.584;2023-05-23T05:16:11;100432.84;;;16.96;72.91
24486;BME280;13449;49.374;8.584;2023-05-23T05:18:38;100426.69;;;16.95;71.99
24486;BME280;13449;49.374;8.584;2023-05-23T05:21:04;100428.41;;;17.04;71.83
24486;BME280;13449;49.374;8.584;2023-05-23T05:23:31;100437.06;;;17.06;71.45
24486;BME280;13449;49.374;8.584;2023-05-23T05:25:58;100436.91;;;17.08;71.96
24486;BME280;13449;49.374;8.584;2023-05-23T05:28:25;100447.25;;;17.19;72.00
24486;BME280;13449;49.374;8.584;2023-05-23T05:30:52;100450.13;;;17.26;71.10
24486;BME280;13449;49.374;8.584;2023-05-23T05:33:20;100449.78;;;17.29;71.38
24486;BME280;13449;49.374;8.584;2023-05-23T05:35:50;100454.84;;;17.40;70.94
24486;BME280;13449;49.374;8.584;2023-05-23T05:38:17;100461.63;;;17.34;69.82
24486;BME280;13449;49.374;8.584;2023-05-23T05:40:43;100449.84;;;17.37;69.89
24486;BME280;13449;49.374;8.584;2023-05-23T05:43:09;100458.34;;;17.49;69.62
24486;BME280;13449;49.374;8.584;2023-05-23T05:45:36;100461.16;;;17.47;69.12
24486;BME280;13449;49.374;8.584;2023-05-23T05:48:03;100462.16;;;17.46;68.82
24486;BME280;13449;49.374;8.584;2023-05-23T05:50:29;100453.00;;;17.49;68.12
24486;BME280;13449;49.374;8.584;2023-05-23T05:52:56;100456.19;;;17.52;68.18
24486;BME280;13449;49.374;8.584;2023-05-23T05:55:24;100464.81;;;17.46;68.63
24486;BME280;13449;49.374;8.584;2023-05-23T05:57:51;100463.47;;;17.42;68.20
24486;BME280;13449;49.374;8.584;2023-05-23T06:00:18;100469.97;;;17.40;67.97
24486;BME280;13449;49.374;8.584;2023-05-23T06:02:45;100473.44;;;17.32;68.16
24486;BME280;13449;49.374;8.584;2023-05-23T06:05:13;100472.75;;;17.22;68.12
24486;BME280;13449;49.374;8.584;2023-05-23T06:07:44;100476.06;;;17.24;68.41
24486;BME280;13449;49.374;8.584;2023-05-23T06:10:10;100481.41;;;17.24;68.01
24486;BME280;13449;49.374;8.584;2023-05-23T06:12:40;100484.56;;;17.27;68.36
24486;BME280;13449;49.374;8.584;2023-05-23T06:15:07;100493.03;;;17.23;68.21
24486;BME280;13449;49.374;8.584;2023-05-23T06:17:36;100485.41;;;17.28;68.29
24486;BME280;13449;49.374;8.584;2023-05-23T06:20:03;100490.78;;;17.36;68.07
24486;BME280;13449;49.374;8.584;2023-05-23T06:22:30;100493.06;;;17.31;68.08
24486;BME280;13449;49.374;8.584;2023-05-23T06:24:56;100492.06;;;17.32;68.09
24486;BME280;13449;49.374;8.584;2023-05-23T06:27:23;100498.88;;;17.34;67.75
24486;BME280;13449;49.374;8.584;2023-05-23T06:29:50;100500.03;;;17.32;67.97
24486;BME280;13449;49.374;8.584;2023-05-23T06:32:16;100491.72;;;17.27;68.15
24486;BME280;13449;49.374;8.584;2023-05-23T06:34:45;100502.03;;;17.30;67.95
24486;BME280;13449;49.374;8.584;2023-05-23T06:37:12;100503.22;;;17.35;68.07
24486;BME280;13449;49.374;8.584;2023-05-23T06:39:38;100502.44;;;17.43;67.70
24486;BME280;13449;49.374;8.584;2023-05-23T06:42:05;100502.25;;;17.45;67.59
24486;BME280;13449;49.374;8.584;2023-05-23T06:44:32;100507.09;;;17.41;67.85
24486;BME280;13449;49.374;8.584;2023-05-23T06:46:58;100505.44;;;17.48;67.26
24486;BME280;13449;49.374;8.584;2023-05-23T06:49:27;100508.47;;;17.53;66.41
24486;BME280;13449;49.374;8.584;2023-05-23T06:51:55;100511.31;;;17.60;66.31
24486;BME280;13449;49.374;8.584;2023-05-23T06:54:22;100513.63;;;17.55;65.98
24486;BME280;13449;49.374;8.584;2023-05-23T06:56:48;100525.13;;;17.63;66.56
24486;BME280;13449;49.374;8.584;2023-05-23T06:59:17;100519.81;;;17.63;65.31
24486;BME280;13449;49.374;8.584;2023-05-23T07:01:44;100514.09;;;17.50;65.45
24486;BME280;13449;49.374;8.584;2023-05-23T07:04:10;100512.47;;;17.65;65.57
24486;BME280;13449;49.374;8.584;2023-05-23T07:06:39;100514.31;;;17.57;64.62
24486;BME280;13449;49.374;8.584;2023-05-23T07:09:06;100524.53;;;17.70;64.77
24486;BME280;13449;49.374;8.584;2023-05-23T07:11:32;100517.63;;;18.01;64.02
24486;BME280;13449;49.374;8.584;2023-05-23T07:14:00;100527.28;;;18.10;64.06
24486;BME280;13449;49.374;8.584;2023-05-23T07:16:27;100531.78;;;18.10;63.32
24486;BME280;13449;49.374;8.584;2023-05-23T07:18:53;100519.31;;;18.18;62.56
24486;BME280;13449;49.374;8.584;2023-05-23T07:21:20;100521.28;;;18.41;62.94
24486;BME280;13449;49.374;8.584;2023-05-23T07:23:46;100530.31;;;18.48;63.06
24486;BME280;13449;49.374;8.584;2023-05-23T07:26:15;100533.66;;;18.50;61.59
24486;BME280;13449;49.374;8.584;2023-05-23T07:28:41;100534.28;;;18.60;61.28
24486;BME280;13449;49.374;8.584;2023-05-23T07:31:08;100514.63;;;18.53;60.77
24486;BME280;13449;49.374;8.584;2023-05-23T07:33:35;100523.31;;;18.39;61.11
24486;BME280;13449;49.374;8.584;2023-05-23T07:36:02;100528.28;;;18.25;60.96
24486;BME280;13449;49.374;8.584;2023-05-23T07:38:28;100532.66;;;18.35;62.03
24486;BME280;13449;49.374;8.584;2023-05-23T07:40:57;100525.97;;;18.39;61.05
24486;BME280;13449;49.374;8.584;2023-05-23T07:43:37;100542.66;;;18.33;61.70
24486;BME280;13449;49.374;8.584;2023-05-23T07:46:06;100529.63;;;18.21;61.57
24486;BME280;13449;49.374;8.584;2023-05-23T07:48:35;100542.59;;;18.00;62.48
24486;BME280;13449;49.374;8.584;2023-05-23T07:51:04;100547.94;;;18.00;63.01
24486;BME280;13449;49.374;8.584;2023-05-23T07:53:31;100543.56;;;17.91;64.14
24486;BME280;13449;49.374;8.584;2023-05-23T07:55:57;100541.72;;;17.91;63.55
24486;BME280;13449;49.374;8.584;2023-05-23T07:58:24;100546.91;;;17.93;63.09
24486;BME280;13449;49.374;8.584;2023-05-23T08:00:50;100545.72;;;17.95;63.84
24486;BME280;13449;49.374;8.584;2023-05-23T08:03:18;100551.25;;;18.10;62.86
24486;BME280;13449;49.374;8.584;2023-05-23T08:05:46;100544.94;;;18.27;62.01
24486;BME280;13449;49.374;8.584;2023-05-23T08:08:12;100543.28;;;18.43;61.79
24486;BME280;13449;49.374;8.584;2023-05-23T08:10:39;100545.81;;;18.52;60.92
24486;BME280;13449;49.374;8.584;2023-05-23T08:13:08;100548.81;;;18.58;61.04
24486;BME280;13449;49.374;8.584;2023-05-23T08:15:35;100542.31;;;18.52;60.39
24486;BME280;13449;49.374;8.584;2023-05-23T08:18:03;100550.28;;;18.44;59.97
24486;BME280;13449;49.374;8.584;2023-05-23T08:20:30;100539.63;;;18.44;60.22
24486;BME280;13449;49.374;8.584;2023-05-23T08:23:01;100544.66;;;18.47;60.74
24486;BME280;13449;49.374;8.584;2023-05-23T08:25:28;100552.31;;;18.42;61.78
24486;BME280;13449;49.374;8.584;2023-05-23T08:27:59;100551.31;;;18.43;60.52
24486;BME280;13449;49.374;8.584;2023-05-23T08:30:29;100542.97;;;18.46;60.50
24486;BME280;13449;49.374;8.584;2023-05-23T08:32:55;100537.13;;;18.59;60.00
24486;BME280;13449;49.374;8.584;2023-05-23T08:35:23;100541.63;;;18.58;59.54
24486;BME280;13449;49.374;8.584;2023-05-23T08:37:50;100553.34;;;18.65;59.08
24486;BME280;13449;49.374;8.584;2023-05-23T08:40:19;100549.28;;;18.61;58.80
24486;BME280;13449;49.374;8.584;2023-05-23T08:42:48;100552.34;;;18.66;58.97
24486;BME280;13449;49.374;8.584;2023-05-23T08:45:15;100547.31;;;18.71;58.15
24486;BME280;13449;49.374;8.584;2023-05-23T08:47:44;100549.00;;;18.72;58.07
24486;BME280;13449;49.374;8.584;2023-05-23T08:50:13;100552.97;;;18.93;59.76
24486;BME280;13449;49.374;8.584;2023-05-23T08:52:58;100551.44;;;19.06;57.83
24486;BME280;13449;49.374;8.584;2023-05-23T08:55:26;100551.63;;;19.13;57.86
24486;BME280;13449;49.374;8.584;2023-05-23T08:57:56;100542.94;;;19.03;58.17
24486;BME280;13449;49.374;8.584;2023-05-23T09:00:25;100543.78;;;19.11;58.32
24486;BME280;13449;49.374;8.584;2023-05-23T09:02:52;100538.56;;;19.18;57.67
24486;BME280;13449;49.374;8.584;2023-05-23T09:05:23;100539.44;;;19.02;57.49
24486;BME280;13449;49.374;8.584;2023-05-23T09:07:49;100546.34;;;18.80;57.66
24486;BME280;13449;49.374;8.584;2023-05-23T09:10:20;100546.97;;;18.91;57.82
24486;BME280;13449;49.374;8.584;2023-05-23T09:12:47;100544.25;;;19.15;57.70
24486;BME280;13449;49.374;8.584;2023-05-23T09:15:14;100546.13;;;18.98;57.51
24486;BME280;13449;49.374;8.584;2023-05-23T09:17:45;100544.97;;;18.93;57.94
24486;BME280;13449;49.374;8.584;2023-05-23T09:20:14;100559.16;;;18.85;57.60
24486;BME280;13449;49.374;8.584;2023-05-23T09:22:45;100561.97;;;19.00;60.43
24486;BME280;13449;49.374;8.584;2023-05-23T09:25:13;100547.00;;;19.46;56.56
24486;BME280;13449;49.374;8.584;2023-05-23T09:27:41;100534.44;;;19.63;55.28
24486;BME280;13449;49.374;8.584;2023-05-23T09:30:12;100538.28;;;19.91;55.18
24486;BME280;13449;49.374;8.584;2023-05-23T09:32:39;100531.81;;;20.31;54.90
24486;BME280;13449;49.374;8.584;2023-05-23T09:35:07;100555.03;;;20.39;55.92
24486;BME280;13449;49.374;8.584;2023-05-23T09:37:39;100544.72;;;20.28;54.81
24486;BME280;13449;49.374;8.584;2023-05-23T09:40:10;100531.13;;;20.38;53.64
24486;BME280;13449;49.374;8.584;2023-05-23T09:42:42;100550.44;;;20.25;55.10
24486;BME280;13449;49.374;8.584;2023-05-23T09:45:13;100552.50;;;20.15;55.48
24486;BME280;13449;49.374;8.584;2023-05-23T09:47:50;100546.03;;;19.78;54.54
24486;BME280;13449;49.374;8.584;2023-05-23T09:50:18;100542.06;;;19.74;55.50
24486;BME280;13449;49.374;8.584;2023-05-23T09:52:44;100556.03;;;19.84;56.86
24486;BME280;13449;49.374;8.584;2023-05-23T09:55:12;100556.47;;;19.65;56.62
24486;BME280;13449;49.374;8.584;2023-05-23T09:57:40;100561.09;;;19.71;56.82
24486;BME280;13449;49.374;8.584;2023-05-23T10:00:09;100548.41;;;19.73;56.18
24486;BME280;13449;49.374;8.584;2023-05-23T10:05:47;100553.31;;;19.92;56.40
24486;BME280;13449;49.374;8.584;2023-05-23T10:08:24;100558.44;;;20.02;56.94
24486;BME280;13449;49.374;8.584;2023-05-23T10:13:48;100552.50;;;20.15;55.14
24486;BME280;13449;49.374;8.584;2023-05-23T10:16:48;100550.28;;;20.49;55.74
24486;BME280;13449;49.374;8.584;2023-05-23T10:22:05;100550.34;;;20.41;55.86
24486;BME280;13449;49.374;8.584;2023-05-23T10:24:34;100554.50;;;20.21;55.99
24486;BME280;13449;49.374;8.584;2023-05-23T10:27:02;100551.84;;;20.13;56.64
24486;BME280;13449;49.374;8.584;2023-05-23T10:29:30;100567.59;;;20.08;57.98
24486;BME280;13449;49.374;8.584;2023-05-23T10:31:57;100554.16;;;19.93;55.92
24486;BME280;13449;49.374;8.584;2023-05-23T10:39:41;100564.13;;;19.68;56.57
24486;BME280;13449;49.374;8.584;2023-05-23T10:42:19;100554.13;;;19.54;56.45
24486;BME280;13449;49.374;8.584;2023-05-23T10:44:48;100569.16;;;19.63;57.11
24486;BME280;13449;49.374;8.584;2023-05-23T10:47:25;100570.03;;;19.47;56.04
24486;BME280;13449;49.374;8.584;2023-05-23T10:49:54;100574.91;;;19.35;56.88
24486;BME280;13449;49.374;8.584;2023-05-23T10:52:23;100576.91;;;19.41;58.38
24486;BME280;13449;49.374;8.584;2023-05-23T10:54:53;100579.53;;;19.50;58.12
24486;BME280;13449;49.374;8.584;2023-05-23T10:57:29;100581.19;;;19.51;58.18
24486;BME280;13449;49.374;8.584;2023-05-23T10:59:57;100587.91;;;19.47;59.05
24486;BME280;13449;49.374;8.584;2023-05-23T11:02:27;100599.91;;;19.59;59.48
24486;BME280;13449;49.374;8.584;2023-05-23T11:07:39;100588.22;;;19.60;59.30
24486;BME280;13449;49.374;8.584;2023-05-23T11:10:12;100589.50;;;19.72;59.37
24486;BME280;13449;49.374;8.584;2023-05-23T11:12:45;100590.91;;;19.60;59.38
24486;BME280;13449;49.374;8.584;2023-05-23T11:15:19;100589.50;;;19.72;59.84
24486;BME280;13449;49.374;8.584;2023-05-23T11:17:51;100590.00;;;20.07;60.15
24486;BME280;13449;49.374;8.584;2023-05-23T11:20:20;100601.59;;;20.53;59.77
24486;BME280;13449;49.374;8.584;2023-05-23T11:23:06;100591.28;;;20.64;59.28
24486;BME280;13449;49.374;8.584;2023-05-23T11:25:39;100603.09;;;20.55;59.48
24486;BME280;13449;49.374;8.584;2023-05-23T11:28:11;100578.22;;;20.16;57.10
24486;BME280;13449;49.374;8.584;2023-05-23T11:30:38;100596.03;;;20.00;59.63
24486;BME280;13449;49.374;8.584;2023-05-23T11:33:12;100594.94;;;19.87;57.59
24486;BME280;13449;49.374;8.584;2023-05-23T11:35:44;100586.38;;;19.60;57.28
24486;BME280;13449;49.374;8.584;2023-05-23T11:38:13;100588.22;;;19.52;57.47
24486;BME280;13449;49.374;8.584;2023-05-23T11:40:41;100590.88;;;19.52;57.40
24486;BME280;13449;49.374;8.584;2023-05-23T11:43:10;100579.53;;;19.50;57.52
24486;BME280;13449;49.374;8.584;2023-05-23T11:45:45;100589.75;;;19.46;57.38
24486;BME280;13449;49.374;8.584;2023-05-23T11:48:14;100586.13;;;19.31;57.71
24486;BME280;13449;49.374;8.584;2023-05-23T11:53:12;100592.56;;;19.61;57.95
24486;BME280;13449;49.374;8.584;2023-05-23T11:55:51;100580.78;;;19.78;56.91
24486;BME280;13449;49.374;8.584;2023-05-23T11:58:25;100572.59;;;19.80;56.19
24486;BME280;13449;49.374;8.584;2023-05-23T12:01:03;100572.69;;;19.94;55.77
24486;BME280;13449;49.374;8.584;2023-05-23T12:03:30;100574.03;;;20.21;56.31
24486;BME280;13449;49.374;8.584;2023-05-23T12:05:57;100569.44;;;20.30;56.15
24486;BME280;13449;49.374;8.584;2023-05-23T12:08:24;100560.03;;;20.42;54.37
24486;BME280;13449;49.374;8.584;2023-05-23T12:10:58;100554.28;;;20.53;54.51
24486;BME280;13449;49.374;8.584;2023-05-23T12:13:27;100555.97;;;20.46;55.28
24486;BME280;13449;49.374;8.584;2023-05-23T12:15:58;100555.84;;;20.62;54.61
24486;BME280;13449;49.374;8.584;2023-05-23T12:18:30;100564.22;;;20.97;56.66
24486;BME280;13449;49.374;8.584;2023-05-23T12:20:59;100558.94;;;20.74;55.70
24486;BME280;13449;49.374;8.584;2023-05-23T12:23:27;100551.47;;;20.70;55.22
24486;BME280;13449;49.374;8.584;2023-05-23T12:25:55;100555.97;;;20.46;55.75
24486;BME280;13449;49.374;8.584;2023-05-23T12:28:43;100564.50;;;20.19;55.73
24486;BME280;13449;49.374;8.584;2023-05-23T12:31:16;100569.19;;;20.17;57.47
24486;BME280;13449;49.374;8.584;2023-05-23T12:33:45;100567.53;;;20.16;57.21
24486;BME280;13449;49.374;8.584;2023-05-23T12:36:20;100577.13;;;20.33;57.89
24486;BME280;13449;49.374;8.584;2023-05-23T12:38:48;100571.53;;;20.20;57.30
24486;BME280;13449;49.374;8.584;2023-05-23T12:41:18;100565.88;;;20.15;57.81
24486;BME280;13449;49.374;8.584;2023-05-23T12:43:52;100574.81;;;19.99;57.34
24486;BME280;13449;49.374;8.584;2023-05-23T12:46:20;100567.47;;;20.01;56.82
24486;BME280;13449;49.374;8.584;2023-05-23T12:48:49;100578.88;;;20.18;56.60
24486;BME280;13449;49.374;8.584;2023-05-23T12:51:16;100565.00;;;20.22;56.29
24486;BME280;13449;49.374;8.584;2023-05-23T12:53:43;100556.72;;;20.32;55.97
24486;BME280;13449;49.374;8.584;2023-05-23T12:56:10;100570.00;;;20.48;56.81
24486;BME280;13449;49.374;8.584;2023-05-23T12:58:36;100569.06;;;20.41;56.04
24486;BME280;13449;49.374;8.584;2023-05-23T13:01:03;100563.31;;;20.52;55.95
24486;BME280;13449;49.374;8.584;2023-05-23T13:03:30;100569.41;;;20.38;55.77
24486;BME280;13449;49.374;8.584;2023-05-23T13:05:57;100555.38;;;20.36;55.29
24486;BME280;13449;49.374;8.584;2023-05-23T13:08:24;100555.06;;;20.31;56.04
24486;BME280;13449;49.374;8.584;2023-05-23T13:10:54;100556.22;;;20.37;56.94
24486;BME280;13449;49.374;8.584;2023-05-23T13:13:23;100556.91;;;20.08;55.78
24486;BME280;13449;49.374;8.584;2023-05-23T13:15:50;100552.16;;;20.18;56.10
24486;BME280;13449;49.374;8.584;2023-05-23T13:18:17;100548.22;;;20.28;55.50
24486;BME280;13449;49.374;8.584;2023-05-23T13:20:44;100549.66;;;20.85;55.76
24486;BME280;13449;49.374;8.584;2023-05-23T13:23:12;100536.34;;;21.06;53.36